sensor_id;sensor_type;location;lat;lon;timestamp;pressure;altitude;pressure_sealevel;temperature;humidity
21395;BME280;10858;42.714;23.180;2023-02-04T00:01:45;94193.63;;;3.79;64.53
21395;BME280;10858;42.714;23.180;2023-02-04T00:04:14;94192.94;;;3.63;64.74
21395;BME280;10858;42.714;23.180;2023-02-04T00:06:41;94187.09;;;3.72;64.72
21395;BME280;10858;42.714;23.180;2023-02-04T00:09:07;94185.38;;;3.85;63.62
21395;BME280;10858;42.714;23.180;2023-02-04T00:11:33;94168.31;;;3.78;63.56
21395;BME280;10858;42.714;23.180;2023-02-04T00:14:00;94172.88;;;4.01;62.18
21395;BME280;10858;42.714;23.180;2023-02-04T00:16:26;94178.34;;;3.98;62.12
21395;BME280;10858;42.714;23.180;2023-02-04T00:18:52;94185.19;;;4.00;62.60
21395;BME280;10858;42.714;23.180;2023-02-04T00:21:18;94176.06;;;4.06;61.58
21395;BME280;10858;42.714;23.180;2023-02-04T00:23:44;94182.56;;;4.00;61.59
21395;BME280;10858;42.714;23.180;2023-02-04T00:26:10;94177.78;;;3.80;61.96
21395;BME280;10858;42.714;23.180;2023-02-04T00:28:36;94173.38;;;3.81;61.30
21395;BME280;10858;42.714;23.180;2023-02-04T00:31:03;94171.16;;;3.75;61.84
21395;BME280;10858;42.714;23.180;2023-02-04T00:33:29;94160.78;;;3.86;61.37
21395;BME280;10858;42.714;23.180;2023-02-04T00:35:55;94156.41;;;3.99;61.43
21395;BME280;10858;42.714;23.180;2023-02-04T00:38:21;94158.28;;;3.97;61.59
21395;BME280;10858;42.714;23.180;2023-02-04T00:40:48;94147.94;;;4.08;61.73
21395;BME280;10858;42.714;23.180;2023-02-04T00:43:14;94155.53;;;3.86;62.42
21395;BME280;10858;42.714;23.180;2023-02-04T00:45:41;94156.50;;;3.85;62.59
21395;BME280;10858;42.714;23.180;2023-02-04T00:48:07;94152.03;;;4.12;61.56
21395;BME280;10858;42.714;23.180;2023-02-04T00:50:33;94142.03;;;3.92;62.37
21395;BME280;10858;42.714;23.180;2023-02-04T00:53:05;94137.81;;;3.89;62.88
21395;BME280;10858;42.714;23.180;2023-02-04T00:55:31;94142.53;;;3.84;63.33
21395;BME280;10858;42.714;23.180;2023-02-04T00:57:57;94132.78;;;3.86;63.23
21395;BME280;10858;42.714;23.180;2023-02-04T01:00:23;94116.00;;;4.01;63.38
21395;BME280;10858;42.714;23.180;2023-02-04T01:02:50;94115.56;;;3.82;63.69
21395;BME280;10858;42.714;23.180;2023-02-04T01:05:16;94117.63;;;3.65;64.05
21395;BME280;10858;42.714;23.180;2023-02-04T01:07:42;94123.69;;;3.53;64.38
21395;BME280;10858;42.714;23.180;2023-02-04T01:10:10;94113.66;;;3.72;63.82
21395;BME280;10858;42.714;23.180;2023-02-04T01:12:36;94107.25;;;3.76;63.87
21395;BME280;10858;42.714;23.180;2023-02-04T01:15:03;94101.84;;;4.04;62.74
21395;BME280;10858;42.714;23.180;2023-02-04T01:17:29;94088.09;;;4.13;61.99
21395;BME280;10858;42.714;23.180;2023-02-04T01:19:55;94091.75;;;3.73;63.34
21395;BME280;10858;42.714;23.180;2023-02-04T01:22:22;94100.53;;;3.72;63.60
21395;BME280;10858;42.714;23.180;2023-02-04T01:24:48;94081.13;;;3.87;63.25
21395;BME280;10858;42.714;23.180;2023-02-04T01:27:15;94077.69;;;3.86;63.23
21395;BME280;10858;42.714;23.180;2023-02-04T01:29:41;94092.25;;;3.78;63.33
21395;BME280;10858;42.714;23.180;2023-02-04T01:32:08;94078.75;;;3.96;63.46
21395;BME280;10858;42.714;23.180;2023-02-04T01:34:34;94074.53;;;4.19;62.95
21395;BME280;10858;42.714;23.180;2023-02-04T01:37:00;94073.19;;;4.26;62.75
21395;BME280;10858;42.714;23.180;2023-02-04T01:39:26;94072.34;;;4.13;62.91
21395;BME280;10858;42.714;23.180;2023-02-04T01:41:52;94064.56;;;3.99;63.65
21395;BME280;10858;42.714;23.180;2023-02-04T01:44:18;94058.91;;;4.17;63.46
21395;BME280;10858;42.714;23.180;2023-02-04T01:46:45;94055.84;;;4.36;63.10
21395;BME280;10858;42.714;23.180;2023-02-04T01:49:11;94042.63;;;4.25;63.04
21395;BME280;10858;42.714;23.180;2023-02-04T01:51:37;94038.94;;;4.40;62.84
21395;BME280;10858;42.714;23.180;2023-02-04T01:54:04;94035.78;;;4.48;63.06
21395;BME280;10858;42.714;23.180;2023-02-04T01:56:31;94027.78;;;4.49;62.52
21395;BME280;10858;42.714;23.180;2023-02-04T01:58:58;94038.06;;;4.65;62.40
21395;BME280;10858;42.714;23.180;2023-02-04T02:01:45;94036.09;;;4.43;62.74
21395;BME280;10858;42.714;23.180;2023-02-04T02:04:20;94029.88;;;4.57;62.39
21395;BME280;10858;42.714;23.180;2023-02-04T02:06:54;94018.16;;;4.73;62.03
21395;BME280;10858;42.714;23.180;2023-02-04T02:09:22;94012.03;;;4.49;62.67
21395;BME280;10858;42.714;23.180;2023-02-04T02:11:48;94010.78;;;4.42;62.63
21395;BME280;10858;42.714;23.180;2023-02-04T02:14:15;94011.53;;;4.19;63.37
21395;BME280;10858;42.714;23.180;2023-02-04T02:16:41;94032.84;;;4.52;62.86
21395;BME280;10858;42.714;23.180;2023-02-04T02:19:11;94004.56;;;4.56;61.69
21395;BME280;10858;42.714;23.180;2023-02-04T02:21:51;94007.44;;;4.76;61.05
21395;BME280;10858;42.714;23.180;2023-02-04T02:24:34;93999.41;;;4.54;62.67
21395;BME280;10858;42.714;23.180;2023-02-04T02:27:06;93994.38;;;4.51;62.27
21395;BME280;10858;42.714;23.180;2023-02-04T02:29:35;93980.44;;;4.51;62.21
21395;BME280;10858;42.714;23.180;2023-02-04T02:32:01;93962.22;;;4.24;63.08
21395;BME280;10858;42.714;23.180;2023-02-04T02:34:28;93949.78;;;3.90;63.71
21395;BME280;10858;42.714;23.180;2023-02-04T02:36:56;93949.78;;;3.90;64.15
21395;BME280;10858;42.714;23.180;2023-02-04T02:39:24;93936.59;;;4.15;64.05
21395;BME280;10858;42.714;23.180;2023-02-04T02:41:50;93955.09;;;4.01;64.26
21395;BME280;10858;42.714;23.180;2023-02-04T02:44:17;93939.19;;;4.27;63.55
21395;BME280;10858;42.714;23.180;2023-02-04T02:46:44;93951.34;;;4.41;62.57
21395;BME280;10858;42.714;23.180;2023-02-04T02:49:14;93948.84;;;4.27;63.17
21395;BME280;10858;42.714;23.180;2023-02-04T02:51:42;93941.34;;;4.46;62.27
21395;BME280;10858;42.714;23.180;2023-02-04T02:54:29;93946.53;;;4.35;62.69
21395;BME280;10858;42.714;23.180;2023-02-04T02:56:56;93930.09;;;4.20;63.54
21395;BME280;10858;42.714;23.180;2023-02-04T02:59:24;93929.44;;;4.29;63.46
21395;BME280;10858;42.714;23.180;2023-02-04T03:02:01;93926.78;;;4.42;62.73
21395;BME280;10858;42.714;23.180;2023-02-04T03:04:30;93929.66;;;4.63;62.25
21395;BME280;10858;42.714;23.180;2023-02-04T03:06:59;93934.66;;;4.66;61.56
21395;BME280;10858;42.714;23.180;2023-02-04T03:09:26;93928.03;;;4.73;61.43
21395;BME280;10858;42.714;23.180;2023-02-04T03:11:54;93928.88;;;4.37;61.81
21395;BME280;10858;42.714;23.180;2023-02-04T03:14:20;93929.25;;;4.56;61.55
21395;BME280;10858;42.714;23.180;2023-02-04T03:16:49;93923.25;;;4.30;62.13
21395;BME280;10858;42.714;23.180;2023-02-04T03:19:15;93923.41;;;4.40;62.09
21395;BME280;10858;42.714;23.180;2023-02-04T03:21:42;93920.13;;;4.49;61.76
21395;BME280;10858;42.714;23.180;2023-02-04T03:24:09;93917.41;;;4.74;61.65
21395;BME280;10858;42.714;23.180;2023-02-04T03:26:35;93927.03;;;4.97;60.80
21395;BME280;10858;42.714;23.180;2023-02-04T03:29:01;93925.13;;;4.65;61.37
21395;BME280;10858;42.714;23.180;2023-02-04T03:31:27;93917.88;;;4.79;61.60
21395;BME280;10858;42.714;23.180;2023-02-04T03:33:54;93918.84;;;4.78;61.14
21395;BME280;10858;42.714;23.180;2023-02-04T03:36:20;93921.53;;;4.42;61.68
21395;BME280;10858;42.714;23.180;2023-02-04T03:38:46;93910.84;;;4.56;62.03
21395;BME280;10858;42.714;23.180;2023-02-04T03:41:13;93898.03;;;4.75;61.50
21395;BME280;10858;42.714;23.180;2023-02-04T03:43:39;93910.25;;;4.76;61.20
21395;BME280;10858;42.714;23.180;2023-02-04T03:46:05;93917.16;;;4.77;61.25
21395;BME280;10858;42.714;23.180;2023-02-04T03:48:31;93918.69;;;4.69;61.45
21395;BME280;10858;42.714;23.180;2023-02-04T03:50:57;93918.16;;;4.87;60.92
21395;BME280;10858;42.714;23.180;2023-02-04T03:53:24;93917.19;;;5.12;60.81
21395;BME280;10858;42.714;23.180;2023-02-04T03:55:50;93907.78;;;5.21;61.73
21395;BME280;10858;42.714;23.180;2023-02-04T03:58:16;93902.56;;;4.97;61.15
21395;BME280;10858;42.714;23.180;2023-02-04T04:00:42;93905.44;;;4.70;62.50
21395;BME280;10858;42.714;23.180;2023-02-04T04:03:09;93884.63;;;4.67;63.15
21395;BME280;10858;42.714;23.180;2023-02-04T04:05:35;93874.03;;;4.45;64.38
21395;BME280;10858;42.714;23.180;2023-02-04T04:08:01;93877.50;;;4.46;65.52
21395;BME280;10858;42.714;23.180;2023-02-04T04:10:27;93867.75;;;4.35;66.37
21395;BME280;10858;42.714;23.180;2023-02-04T04:12:54;93862.63;;;4.33;66.66
21395;BME280;10858;42.714;23.180;2023-02-04T04:15:20;93857.31;;;4.46;66.20
21395;BME280;10858;42.714;23.180;2023-02-04T04:17:46;93868.72;;;4.34;65.87
21395;BME280;10858;42.714;23.180;2023-02-04T04:20:13;93851.34;;;4.44;65.24
21395;BME280;10858;42.714;23.180;2023-02-04T04:22:40;93869.31;;;4.61;64.63
21395;BME280;10858;42.714;23.180;2023-02-04T04:25:06;93861.50;;;4.72;64.19
21395;BME280;10858;42.714;23.180;2023-02-04T04:27:33;93873.72;;;4.84;63.26
21395;BME280;10858;42.714;23.180;2023-02-04T04:29:59;93866.97;;;4.69;64.01
21395;BME280;10858;42.714;23.180;2023-02-04T04:32:26;93883.63;;;4.81;63.98
21395;BME280;10858;42.714;23.180;2023-02-04T04:34:52;93885.28;;;4.71;64.78
21395;BME280;10858;42.714;23.180;2023-02-04T04:37:18;93891.13;;;4.74;64.63
21395;BME280;10858;42.714;23.180;2023-02-04T04:39:44;93885.03;;;4.50;66.08
21395;BME280;10858;42.714;23.180;2023-02-04T04:42:10;93892.91;;;4.50;67.10
21395;BME280;10858;42.714;23.180;2023-02-04T04:44:36;93896.75;;;4.57;66.66
21395;BME280;10858;42.714;23.180;2023-02-04T04:47:03;93899.47;;;4.68;66.40
21395;BME280;10858;42.714;23.180;2023-02-04T04:49:29;93892.44;;;4.69;67.36
21395;BME280;10858;42.714;23.180;2023-02-04T04:51:55;93902.53;;;4.62;68.13
21395;BME280;10858;42.714;23.180;2023-02-04T04:54:21;93902.13;;;4.32;69.61
21395;BME280;10858;42.714;23.180;2023-02-04T04:56:47;93908.75;;;4.25;70.53
21395;BME280;10858;42.714;23.180;2023-02-04T04:59:14;93898.69;;;4.19;71.81
21395;BME280;10858;42.714;23.180;2023-02-04T05:01:40;93909.91;;;4.21;72.02
21395;BME280;10858;42.714;23.180;2023-02-04T05:04:06;93904.16;;;4.16;72.96
21395;BME280;10858;42.714;23.180;2023-02-04T05:06:32;93912.78;;;4.18;73.89
21395;BME280;10858;42.714;23.180;2023-02-04T05:08:59;93912.34;;;4.24;74.35
21395;BME280;10858;42.714;23.180;2023-02-04T05:11:25;93934.34;;;4.34;74.63
21395;BME280;10858;42.714;23.180;2023-02-04T05:13:51;93930.03;;;4.33;74.54
21395;BME280;10858;42.714;23.180;2023-02-04T05:16:17;93940.06;;;4.03;75.59
21395;BME280;10858;42.714;23.180;2023-02-04T05:18:43;93963.69;;;4.03;76.16
21395;BME280;10858;42.714;23.180;2023-02-04T05:21:10;93957.66;;;3.65;77.88
21395;BME280;10858;42.714;23.180;2023-02-04T05:23:36;93962.88;;;3.77;77.68
21395;BME280;10858;42.714;23.180;2023-02-04T05:26:02;93972.41;;;3.53;78.00
21395;BME280;10858;42.714;23.180;2023-02-04T05:28:28;93965.88;;;3.08;79.47
21395;BME280;10858;42.714;23.180;2023-02-04T05:30:57;93971.91;;;2.96;80.40
21395;BME280;10858;42.714;23.180;2023-02-04T05:33:26;93979.13;;;2.93;79.88
21395;BME280;10858;42.714;23.180;2023-02-04T05:35:52;93973.94;;;2.79;80.48
21395;BME280;10858;42.714;23.180;2023-02-04T05:38:18;93983.28;;;2.83;80.33
21395;BME280;10858;42.714;23.180;2023-02-04T05:40:44;93970.91;;;2.85;80.17
21395;BME280;10858;42.714;23.180;2023-02-04T05:43:11;93986.09;;;3.06;79.14
21395;BME280;10858;42.714;23.180;2023-02-04T05:45:37;93988.00;;;3.17;78.71
21395;BME280;10858;42.714;23.180;2023-02-04T05:48:03;93982.75;;;3.04;78.59
21395;BME280;10858;42.714;23.180;2023-02-04T05:50:29;93978.34;;;3.17;78.14
21395;BME280;10858;42.714;23.180;2023-02-04T05:52:56;93969.19;;;2.98;78.08
21395;BME280;10858;42.714;23.180;2023-02-04T05:55:22;93969.38;;;2.82;78.44
21395;BME280;10858;42.714;23.180;2023-02-04T05:57:48;93969.78;;;2.89;77.90
21395;BME280;10858;42.714;23.180;2023-02-04T06:00:14;93966.03;;;2.93;77.75
21395;BME280;10858;42.714;23.180;2023-02-04T06:02:41;93952.63;;;2.97;77.86
21395;BME280;10858;42.714;23.180;2023-02-04T06:05:07;93954.47;;;2.83;78.10
21395;BME280;10858;42.714;23.180;2023-02-04T06:07:33;93940.09;;;2.76;78.32
21395;BME280;10858;42.714;23.180;2023-02-04T06:09:59;93959.31;;;2.89;78.16
21395;BME280;10858;42.714;23.180;2023-02-04T06:12:26;93947.28;;;2.99;77.96
21395;BME280;10858;42.714;23.180;2023-02-04T06:14:52;93957.03;;;2.97;77.65
21395;BME280;10858;42.714;23.180;2023-02-04T06:17:18;93949.34;;;3.20;76.81
21395;BME280;10858;42.714;23.180;2023-02-04T06:19:44;93961.28;;;3.24;76.22
21395;BME280;10858;42.714;23.180;2023-02-04T06:22:10;93966.13;;;3.30;75.63
21395;BME280;10858;42.714;23.180;2023-02-04T06:24:36;93956.13;;;3.23;75.26
21395;BME280;10858;42.714;23.180;2023-02-04T06:27:02;93959.00;;;3.32;75.15
21395;BME280;10858;42.714;23.180;2023-02-04T06:29:29;93955.84;;;3.27;74.53
21395;BME280;10858;42.714;23.180;2023-02-04T06:31:55;93956.28;;;3.34;74.70
21395;BME280;10858;42.714;23.180;2023-02-04T06:34:21;93947.47;;;3.47;74.30
21395;BME280;10858;42.714;23.180;2023-02-04T06:36:47;93948.09;;;3.38;73.72
21395;BME280;10858;42.714;23.180;2023-02-04T06:39:13;93958.81;;;3.48;73.85
21395;BME280;10858;42.714;23.180;2023-02-04T06:41:39;93961.75;;;3.56;73.06
21395;BME280;10858;42.714;23.180;2023-02-04T06:44:05;93969.28;;;3.86;72.15
21395;BME280;10858;42.714;23.180;2023-02-04T06:46:32;93965.28;;;3.93;71.12
21395;BME280;10858;42.714;23.180;2023-02-04T06:48:58;93966.97;;;4.06;70.34
21395;BME280;10858;42.714;23.180;2023-02-04T06:51:24;93973.50;;;4.37;69.98
21395;BME280;10858;42.714;23.180;2023-02-04T06:53:51;93975.84;;;4.65;69.48
21395;BME280;10858;42.714;23.180;2023-02-04T06:56:17;93968.81;;;4.89;68.71
21395;BME280;10858;42.714;23.180;2023-02-04T06:58:44;93968.16;;;4.75;68.05
21395;BME280;10858;42.714;23.180;2023-02-04T07:01:10;93967.69;;;5.04;67.74
21395;BME280;10858;42.714;23.180;2023-02-04T07:03:36;93973.13;;;4.90;66.91
21395;BME280;10858;42.714;23.180;2023-02-04T07:06:03;93969.38;;;5.05;67.04
21395;BME280;10858;42.714;23.180;2023-02-04T07:08:29;93955.94;;;4.97;66.62
21395;BME280;10858;42.714;23.180;2023-02-04T07:10:55;93961.44;;;4.94;66.89
21395;BME280;10858;42.714;23.180;2023-02-04T07:13:21;93966.47;;;4.97;67.37
21395;BME280;10858;42.714;23.180;2023-02-04T07:15:48;93952.38;;;4.98;67.29
21395;BME280;10858;42.714;23.180;2023-02-04T07:18:14;93953.53;;;5.18;66.52
21395;BME280;10858;42.714;23.180;2023-02-04T07:20:41;93963.59;;;5.59;65.26
21395;BME280;10858;42.714;23.180;2023-02-04T07:23:07;93963.63;;;5.81;63.62
21395;BME280;10858;42.714;23.180;2023-02-04T07:25:33;93965.28;;;5.82;63.70
21395;BME280;10858;42.714;23.180;2023-02-04T07:27:59;93962.50;;;6.07;63.37
21395;BME280;10858;42.714;23.180;2023-02-04T07:30:26;93962.25;;;6.10;62.34
21395;BME280;10858;42.714;23.180;2023-02-04T07:32:52;93969.09;;;6.35;62.10
21395;BME280;10858;42.714;23.180;2023-02-04T07:35:19;93974.66;;;6.63;60.68
21395;BME280;10858;42.714;23.180;2023-02-04T07:37:45;93962.09;;;6.56;61.07
21395;BME280;10858;42.714;23.180;2023-02-04T07:40:11;93962.22;;;6.65;60.71
21395;BME280;10858;42.714;23.180;2023-02-04T07:42:38;93967.00;;;6.71;60.52
21395;BME280;10858;42.714;23.180;2023-02-04T07:45:04;93958.13;;;6.72;59.97
21395;BME280;10858;42.714;23.180;2023-02-04T07:47:31;93955.69;;;6.92;60.34
21395;BME280;10858;42.714;23.180;2023-02-04T07:49:57;93952.81;;;6.95;60.25
21395;BME280;10858;42.714;23.180;2023-02-04T07:52:24;93959.69;;;6.75;60.13
21395;BME280;10858;42.714;23.180;2023-02-04T07:54:50;93958.94;;;6.84;60.18
21395;BME280;10858;42.714;23.180;2023-02-04T07:57:18;93948.97;;;6.23;60.67
21395;BME280;10858;42.714;23.180;2023-02-04T07:59:45;93960.09;;;6.04;61.79
21395;BME280;10858;42.714;23.180;2023-02-04T08:02:11;93952.78;;;5.96;62.64
21395;BME280;10858;42.714;23.180;2023-02-04T08:04:37;93961.31;;;6.11;61.86
21395;BME280;10858;42.714;23.180;2023-02-04T08:07:04;93962.13;;;6.23;61.70
21395;BME280;10858;42.714;23.180;2023-02-04T08:09:30;93955.38;;;5.74;62.71
21395;BME280;10858;42.714;23.180;2023-02-04T08:11:57;93952.84;;;5.73;63.06
21395;BME280;10858;42.714;23.180;2023-02-04T08:14:24;93949.38;;;5.72;62.92
21395;BME280;10858;42.714;23.180;2023-02-04T08:16:51;93939.75;;;6.17;62.81
21395;BME280;10858;42.714;23.180;2023-02-04T08:19:17;93939.81;;;6.60;61.08
21395;BME280;10858;42.714;23.180;2023-02-04T08:21:46;93939.00;;;6.48;61.12
21395;BME280;10858;42.714;23.180;2023-02-04T08:24:13;93937.00;;;6.19;61.45
21395;BME280;10858;42.714;23.180;2023-02-04T08:26:41;93938.06;;;5.94;61.63
21395;BME280;10858;42.714;23.180;2023-02-04T08:29:07;93927.81;;;6.13;62.07
21395;BME280;10858;42.714;23.180;2023-02-04T08:31:34;93938.00;;;5.72;62.33
21395;BME280;10858;42.714;23.180;2023-02-04T08:34:03;93934.44;;;5.73;63.64
21395;BME280;10858;42.714;23.180;2023-02-04T08:36:30;93938.31;;;5.91;64.11
21395;BME280;10858;42.714;23.180;2023-02-04T08:38:56;93938.78;;;5.85;65.05
21395;BME280;10858;42.714;23.180;2023-02-04T08:41:23;93941.91;;;5.90;64.47
21395;BME280;10858;42.714;23.180;2023-02-04T08:43:49;93941.63;;;5.71;65.41
21395;BME280;10858;42.714;23.180;2023-02-04T08:46:15;93932.06;;;5.81;66.73
21395;BME280;10858;42.714;23.180;2023-02-04T08:48:41;93936.75;;;6.22;66.23
21395;BME280;10858;42.714;23.180;2023-02-04T08:51:07;93927.75;;;6.46;64.43
21395;BME280;10858;42.714;23.180;2023-02-04T08:53:34;93937.09;;;6.50;64.08
21395;BME280;10858;42.714;23.180;2023-02-04T08:56:00;93927.19;;;6.10;64.74
21395;BME280;10858;42.714;23.180;2023-02-04T08:58:26;93936.47;;;5.80;65.49
21395;BME280;10858;42.714;23.180;2023-02-04T09:00:52;93937.94;;;5.84;66.33
21395;BME280;10858;42.714;23.180;2023-02-04T09:03:18;93925.38;;;6.32;64.59
21395;BME280;10858;42.714;23.180;2023-02-04T09:05:45;93932.31;;;6.22;63.80
21395;BME280;10858;42.714;23.180;2023-02-04T09:08:12;93923.00;;;6.18;64.20
21395;BME280;10858;42.714;23.180;2023-02-04T09:10:58;93926.94;;;6.24;62.18
21395;BME280;10858;42.714;23.180;2023-02-04T09:13:25;93927.66;;;6.26;62.09
21395;BME280;10858;42.714;23.180;2023-02-04T09:15:51;93921.56;;;6.03;62.78
21395;BME280;10858;42.714;23.180;2023-02-04T09:18:18;93928.88;;;6.11;62.72
21395;BME280;10858;42.714;23.180;2023-02-04T09:20:47;93925.63;;;5.96;63.64
21395;BME280;10858;42.714;23.180;2023-02-04T09:23:14;93920.22;;;5.97;63.91
21395;BME280;10858;42.714;23.180;2023-02-04T09:25:42;93905.88;;;5.90;65.18
21395;BME280;10858;42.714;23.180;2023-02-04T09:28:09;93933.00;;;5.69;65.82
21395;BME280;10858;42.714;23.180;2023-02-04T09:30:37;93927.72;;;5.23;66.59
21395;BME280;10858;42.714;23.180;2023-02-04T09:33:04;93925.66;;;5.50;67.10
21395;BME280;10858;42.714;23.180;2023-02-04T09:35:30;93931.69;;;5.74;66.53
21395;BME280;10858;42.714;23.180;2023-02-04T09:37:57;93916.94;;;5.50;67.18
21395;BME280;10858;42.714;23.180;2023-02-04T09:40:25;93920.81;;;5.79;67.85
21395;BME280;10858;42.714;23.180;2023-02-04T09:42:53;93912.25;;;5.99;68.30
21395;BME280;10858;42.714;23.180;2023-02-04T09:45:25;93914.31;;;5.72;68.01
21395;BME280;10858;42.714;23.180;2023-02-04T09:47:55;93916.19;;;5.37;69.47
21395;BME280;10858;42.714;23.180;2023-02-04T09:50:23;93918.78;;;5.26;70.64
21395;BME280;10858;42.714;23.180;2023-02-04T09:52:52;93907.25;;;5.50;70.81
21395;BME280;10858;42.714;23.180;2023-02-04T09:55:21;93911.41;;;5.31;71.78
21395;BME280;10858;42.714;23.180;2023-02-04T09:57:50;93900.41;;;5.37;71.99
21395;BME280;10858;42.714;23.180;2023-02-04T10:00:17;93898.78;;;5.69;71.34
21395;BME280;10858;42.714;23.180;2023-02-04T10:02:45;93894.53;;;5.33;69.95
21395;BME280;10858;42.714;23.180;2023-02-04T10:05:31;93889.13;;;5.24;71.87
21395;BME280;10858;42.714;23.180;2023-02-04T10:07:59;93885.19;;;5.29;70.79
21395;BME280;10858;42.714;23.180;2023-02-04T10:10:27;93878.19;;;4.95;71.14
21395;BME280;10858;42.714;23.180;2023-02-04T10:12:58;93881.69;;;5.06;72.41
21395;BME280;10858;42.714;23.180;2023-02-04T10:15:25;93878.81;;;4.98;73.52
21395;BME280;10858;42.714;23.180;2023-02-04T10:17:54;93873.47;;;5.11;73.66
21395;BME280;10858;42.714;23.180;2023-02-04T10:20:24;93879.00;;;4.95;75.25
21395;BME280;10858;42.714;23.180;2023-02-04T10:22:52;93881.28;;;4.89;76.46
21395;BME280;10858;42.714;23.180;2023-02-04T10:25:22;93873.31;;;4.67;76.66
21395;BME280;10858;42.714;23.180;2023-02-04T10:27:53;93879.66;;;4.75;78.03
21395;BME280;10858;42.714;23.180;2023-02-04T10:30:36;93877.69;;;4.90;78.28
21395;BME280;10858;42.714;23.180;2023-02-04T10:33:21;93873.91;;;4.70;78.61
21395;BME280;10858;42.714;23.180;2023-02-04T10:35:54;93869.38;;;4.72;79.78
21395;BME280;10858;42.714;23.180;2023-02-04T10:38:21;93870.84;;;4.76;79.82
21395;BME280;10858;42.714;23.180;2023-02-04T10:40:58;93868.59;;;4.83;79.66
21395;BME280;10858;42.714;23.180;2023-02-04T10:43:25;93872.09;;;4.94;80.17
21395;BME280;10858;42.714;23.180;2023-02-04T10:45:57;93862.25;;;5.20;79.57
21395;BME280;10858;42.714;23.180;2023-02-04T10:48:24;93869.88;;;5.12;79.61
21395;BME280;10858;42.714;23.180;2023-02-04T10:50:51;93863.84;;;5.45;79.34
21395;BME280;10858;42.714;23.180;2023-02-04T10:53:22;93861.44;;;5.42;78.65
21395;BME280;10858;42.714;23.180;2023-02-04T10:56:20;93854.75;;;5.38;79.90
21395;BME280;10858;42.714;23.180;2023-02-04T10:58:47;93855.00;;;5.35;78.46
21395;BME280;10858;42.714;23.180;2023-02-04T11:01:15;93846.59;;;5.30;79.20
21395;BME280;10858;42.714;23.180;2023-02-04T11:03:42;93846.13;;;5.36;80.23
21395;BME280;10858;42.714;23.180;2023-02-04T11:06:18;93844.56;;;5.33;79.46
21395;BME280;10858;42.714;23.180;2023-02-04T11:08:45;93849.47;;;5.38;80.03
21395;BME280;10858;42.714;23.180;2023-02-04T11:11:23;93854.69;;;5.15;80.33
21395;BME280;10858;42.714;23.180;2023-02-04T11:19:00;93841.56;;;5.15;81.56
21395;BME280;10858;42.714;23.180;2023-02-04T11:26:48;93832.16;;;4.89;82.25
21395;BME280;10858;42.714;23.180;2023-02-04T11:32:02;93824.28;;;4.78;81.73
21395;BME280;10858;42.714;23.180;2023-02-04T11:34:30;93830.06;;;4.94;81.52
21395;BME280;10858;42.714;23.180;2023-02-04T11:37:05;93827.50;;;4.82;81.58
21395;BME280;10858;42.714;23.180;2023-02-04T11:39:43;93829.97;;;4.72;81.69
21395;BME280;10858;42.714;23.180;2023-02-04T11:42:30;93825.72;;;4.82;81.84
21395;BME280;10858;42.714;23.180;2023-02-04T11:45:10;93827.75;;;4.90;82.09
21395;BME280;10858;42.714;23.180;2023-02-04T11:47:37;93824.03;;;5.38;81.15
21395;BME280;10858;42.714;23.180;2023-02-04T11:50:14;93829.72;;;5.10;80.20
21395;BME280;10858;42.714;23.180;2023-02-04T11:52:41;93836.66;;;5.11;81.22
21395;BME280;10858;42.714;23.180;2023-02-04T11:55:10;93825.94;;;4.79;82.10
21395;BME280;10858;42.714;23.180;2023-02-04T11:57:38;93815.66;;;5.22;81.77
21395;BME280;10858;42.714;23.180;2023-02-04T12:00:11;93814.09;;;5.31;80.58
21395;BME280;10858;42.714;23.180;2023-02-04T12:02:46;93820.91;;;4.76;81.95
21395;BME280;10858;42.714;23.180;2023-02-04T12:05:18;93824.94;;;5.04;82.30
21395;BME280;10858;42.714;23.180;2023-02-04T12:07:45;93828.91;;;5.32;81.59
21395;BME280;10858;42.714;23.180;2023-02-04T12:12:54;93821.50;;;5.26;80.79
21395;BME280;10858;42.714;23.180;2023-02-04T12:15:34;93827.94;;;5.22;81.12
21395;BME280;10858;42.714;23.180;2023-02-04T12:18:08;93815.53;;;5.46;80.71
21395;BME280;10858;42.714;23.180;2023-02-04T12:20:35;93813.16;;;5.54;80.25
21395;BME280;10858;42.714;23.180;2023-02-04T12:23:02;93805.75;;;5.59;80.02
21395;BME280;10858;42.714;23.180;2023-02-04T12:25:29;93810.75;;;5.62;79.68
21395;BME280;10858;42.714;23.180;2023-02-04T12:27:55;93813.28;;;5.85;79.52
21395;BME280;10858;42.714;23.180;2023-02-04T12:30:23;93812.22;;;5.88;78.56
21395;BME280;10858;42.714;23.180;2023-02-04T12:32:50;93808.59;;;5.78;77.14
21395;BME280;10858;42.714;23.180;2023-02-04T12:35:17;93808.63;;;5.67;77.58
21395;BME280;10858;42.714;23.180;2023-02-04T12:37:43;93799.78;;;5.57;78.56
21395;BME280;10858;42.714;23.180;2023-02-04T12:40:14;93809.78;;;5.18;78.17
21395;BME280;10858;42.714;23.180;2023-02-04T12:42:42;93798.56;;;5.28;78.63
21395;BME280;10858;42.714;23.180;2023-02-04T12:45:09;93809.91;;;5.61;78.82
21395;BME280;10858;42.714;23.180;2023-02-04T12:47:36;93805.38;;;5.30;77.44
21395;BME280;10858;42.714;23.180;2023-02-04T12:50:03;93813.25;;;5.41;78.61
21395;BME280;10858;42.714;23.180;2023-02-04T12:52:30;93821.50;;;5.48;78.05
21395;BME280;10858;42.714;23.180;2023-02-04T12:54:56;93821.97;;;5.08;77.14
21395;BME280;10858;42.714;23.180;2023-02-04T12:57:22;93819.34;;;5.19;77.08
21395;BME280;10858;42.714;23.180;2023-02-04T12:59:48;93813.59;;;5.26;77.95
21395;BME280;10858;42.714;23.180;2023-02-04T13:02:15;93821.75;;;5.34;75.36
21395;BME280;10858;42.714;23.180;2023-02-04T13:04:41;93817.44;;;5.10;73.99
21395;BME280;10858;42.714;23.180;2023-02-04T13:07:08;93830.81;;;5.30;73.70
21395;BME280;10858;42.714;23.180;2023-02-04T13:09:35;93822.88;;;4.96;73.24
21395;BME280;10858;42.714;23.180;2023-02-04T13:12:02;93826.63;;;5.05;74.41
21395;BME280;10858;42.714;23.180;2023-02-04T13:14:28;93822.50;;;5.69;73.11
21395;BME280;10858;42.714;23.180;2023-02-04T13:16:54;93823.69;;;5.65;71.86
21395;BME280;10858;42.714;23.180;2023-02-04T13:19:20;93819.63;;;5.39;73.40